AWC78E LGAV-HKJK
Flight info
| Callsign | AWC78E |
|---|---|
| Flight time | N/A |
| Altitude | 35000 |
| Route | KEA UL617 MIL UJ56 SUD DCT SALUN L604 MEVDA/N0459F370 P557 NUBAR P309 AVONO/N0465F380 A727 ANTAX/N0468F370 UA727 KAMAS KAMAS1A |
| Aircraft | A21N/M-SDE2E3FGHIRWXY/LB1 |
Departure
| Time | N/A |
|---|---|
| Airport | Athens Eleftherios Venizelos International Airport (LGAV) |
Arrival
| Time | 2026-05-07 21:55 |
|---|---|
| Airport | Jomo Kenyatta International Airport (HKJK) |
| Time | Latitude | Longitude | Altitude | Speed | Heading |
|---|---|---|---|---|---|
| 2026-05-07 17:28 | 30.40899 | 26.93753 | 35792 ft | 521 kts | 142° |
| 2026-05-07 17:28 | 30.37977 | 26.96360 | 35336 ft | 537 kts | 142° |
| 2026-05-07 17:29 | 30.34993 | 26.99028 | 35186 ft | 546 kts | 142° |
| 2026-05-07 17:29 | 30.31976 | 27.01727 | 35157 ft | 550 kts | 142° |
| 2026-05-07 17:29 | 30.25987 | 27.07086 | 35159 ft | 546 kts | 142° |
| 2026-05-07 17:30 | 30.19999 | 27.12437 | 35158 ft | 543 kts | 142° |
| 2026-05-07 17:30 | 30.14010 | 27.17763 | 35160 ft | 543 kts | 142° |
| 2026-05-07 17:31 | 30.08007 | 27.23082 | 35160 ft | 544 kts | 142° |
| 2026-05-07 17:31 | 30.02038 | 27.28355 | 35150 ft | 544 kts | 142° |
| 2026-05-07 17:32 | 29.96025 | 27.33642 | 35153 ft | 541 kts | 142° |
| 2026-05-07 17:32 | 29.91051 | 27.38009 | 35149 ft | 541 kts | 142° |
| 2026-05-07 17:33 | 29.84056 | 27.44147 | 35150 ft | 541 kts | 142° |
| 2026-05-07 17:33 | 29.78056 | 27.49388 | 35150 ft | 542 kts | 142° |
| 2026-05-07 17:34 | 29.72047 | 27.54630 | 35150 ft | 542 kts | 142° |
| 2026-05-07 17:34 | 29.66081 | 27.59831 | 35150 ft | 542 kts | 142° |
| 2026-05-07 17:35 | 29.60071 | 27.65066 | 35148 ft | 542 kts | 142° |
| 2026-05-07 17:35 | 29.54061 | 27.70299 | 35151 ft | 542 kts | 142° |
| 2026-05-07 17:36 | 29.48047 | 27.75533 | 35150 ft | 542 kts | 142° |
| 2026-05-07 17:36 | 29.42044 | 27.80756 | 35146 ft | 541 kts | 142° |
| 2026-05-07 17:37 | 29.36060 | 27.85851 | 35140 ft | 541 kts | 144° |
| 2026-05-07 17:37 | 29.30080 | 27.91067 | 35131 ft | 541 kts | 151° |
| 2026-05-07 17:38 | 29.23168 | 27.94351 | 35146 ft | 537 kts | 163° |
| 2026-05-07 17:38 | 29.16116 | 27.97168 | 35142 ft | 537 kts | 162° |
| 2026-05-07 17:39 | 29.09156 | 28.00083 | 35139 ft | 536 kts | 162° |
| 2026-05-07 17:39 | 29.02153 | 28.03056 | 35140 ft | 538 kts | 161° |
| 2026-05-07 17:40 | 28.95146 | 28.06022 | 35140 ft | 537 kts | 161° |
| 2026-05-07 17:40 | 28.88134 | 28.08979 | 35140 ft | 537 kts | 162° |
| 2026-05-07 17:41 | 28.81272 | 28.12315 | 35127 ft | 538 kts | 146° |
| 2026-05-07 17:41 | 28.75354 | 28.17427 | 35136 ft | 538 kts | 142° |
| 2026-05-07 17:42 | 28.69248 | 28.22347 | 35135 ft | 537 kts | 146° |
| 2026-05-07 17:42 | 28.63020 | 28.27052 | 35131 ft | 537 kts | 146° |
| 2026-05-07 17:43 | 28.56794 | 28.31745 | 35133 ft | 537 kts | 146° |
| 2026-05-07 17:43 | 28.50613 | 28.36416 | 35129 ft | 537 kts | 146° |
| 2026-05-07 17:44 | 28.44393 | 28.41101 | 35130 ft | 536 kts | 146° |
| 2026-05-07 17:44 | 28.38179 | 28.45782 | 35131 ft | 536 kts | 146° |
| 2026-05-07 17:45 | 28.31957 | 28.50453 | 35110 ft | 536 kts | 146° |
| 2026-05-07 17:45 | 28.25776 | 28.55087 | 35092 ft | 536 kts | 146° |
| 2026-05-07 17:46 | 28.19547 | 28.59750 | 35089 ft | 536 kts | 146° |
| 2026-05-07 17:46 | 28.13316 | 28.64423 | 35089 ft | 537 kts | 146° |
| 2026-05-07 17:47 | 28.07085 | 28.69086 | 35096 ft | 537 kts | 146° |
| 2026-05-07 17:47 | 28.00883 | 28.73712 | 35094 ft | 537 kts | 146° |
| 2026-05-07 17:48 | 27.94649 | 28.78365 | 35084 ft | 536 kts | 146° |
| 2026-05-07 17:48 | 27.89471 | 28.82221 | 35093 ft | 536 kts | 146° |
| 2026-05-07 17:49 | 27.83236 | 28.86853 | 35094 ft | 537 kts | 146° |
| 2026-05-07 17:49 | 27.76998 | 28.91488 | 35092 ft | 537 kts | 146° |
| 2026-05-07 17:50 | 27.69728 | 28.96874 | 35086 ft | 537 kts | 146° |
| 2026-05-07 17:50 | 27.63486 | 29.01498 | 35089 ft | 537 kts | 146° |
| 2026-05-07 17:51 | 27.58290 | 29.05339 | 35081 ft | 538 kts | 146° |
| 2026-05-07 17:51 | 27.52027 | 29.09951 | 35083 ft | 538 kts | 146° |
| 2026-05-07 17:52 | 27.45755 | 29.14564 | 35083 ft | 538 kts | 146° |
| 2026-05-07 17:52 | 27.39483 | 29.19172 | 35079 ft | 538 kts | 146° |
| 2026-05-07 17:53 | 27.33230 | 29.23797 | 35082 ft | 538 kts | 146° |
| 2026-05-07 17:53 | 27.27005 | 29.28375 | 35083 ft | 538 kts | 146° |
| 2026-05-07 17:54 | 27.20735 | 29.32975 | 35079 ft | 539 kts | 146° |
| 2026-05-07 17:54 | 27.14448 | 29.37574 | 35084 ft | 539 kts | 146° |
| 2026-05-07 17:55 | 27.08203 | 29.42139 | 35085 ft | 539 kts | 146° |
| 2026-05-07 17:55 | 27.01916 | 29.46732 | 35074 ft | 540 kts | 146° |
| 2026-05-07 17:56 | 26.95616 | 29.51330 | 35041 ft | 540 kts | 146° |
| 2026-05-07 17:56 | 26.89306 | 29.55918 | 35031 ft | 541 kts | 147° |
| 2026-05-07 17:57 | 26.83033 | 29.60485 | 35031 ft | 541 kts | 146° |
| 2026-05-07 17:57 | 26.76714 | 29.65071 | 35031 ft | 542 kts | 147° |
| 2026-05-07 17:58 | 26.70379 | 29.69665 | 35030 ft | 543 kts | 147° |
| 2026-05-07 17:58 | 26.64043 | 29.74254 | 35025 ft | 544 kts | 147° |
| 2026-05-07 17:59 | 26.57691 | 29.78857 | 35027 ft | 544 kts | 147° |
| 2026-05-07 17:59 | 26.51401 | 29.83468 | 35019 ft | 545 kts | 147° |
| 2026-05-07 18:00 | 26.45056 | 29.88106 | 35022 ft | 546 kts | 147° |
| 2026-05-07 18:00 | 26.38700 | 29.92751 | 35016 ft | 547 kts | 147° |
| 2026-05-07 18:01 | 26.32332 | 29.97395 | 35022 ft | 547 kts | 147° |
| 2026-05-07 18:01 | 26.25958 | 30.02036 | 35046 ft | 547 kts | 147° |
| 2026-05-07 18:02 | 26.16392 | 30.08850 | 35050 ft | 547 kts | 148° |
| 2026-05-07 18:03 | 26.09954 | 30.13381 | 35049 ft | 547 kts | 148° |
| 2026-05-07 18:03 | 26.03523 | 30.17921 | 35046 ft | 547 kts | 148° |
| 2026-05-07 18:04 | 25.97137 | 30.22415 | 35043 ft | 547 kts | 148° |
| 2026-05-07 18:04 | 25.90712 | 30.26941 | 35041 ft | 547 kts | 148° |
| 2026-05-07 18:05 | 25.84285 | 30.31456 | 35041 ft | 546 kts | 148° |
| 2026-05-07 18:05 | 25.77555 | 30.35235 | 35025 ft | 540 kts | 165° |
| 2026-05-07 18:06 | 25.70378 | 30.37698 | 35042 ft | 539 kts | 166° |
| 2026-05-07 18:06 | 25.63302 | 30.40164 | 35027 ft | 538 kts | 165° |
| 2026-05-07 18:07 | 25.56241 | 30.42646 | 34925 ft | 526 kts | 166° |
| 2026-05-07 18:07 | 25.49223 | 30.45101 | 34895 ft | 531 kts | 166° |
| 2026-05-07 18:08 | 25.42202 | 30.47567 | 34889 ft | 529 kts | 166° |
| 2026-05-07 18:08 | 25.35223 | 30.49996 | 34887 ft | 527 kts | 166° |
| 2026-05-07 18:09 | 25.28229 | 30.52434 | 34886 ft | 527 kts | 166° |
| 2026-05-07 18:09 | 25.21243 | 30.54867 | 34889 ft | 525 kts | 166° |
| 2026-05-07 18:10 | 25.14277 | 30.57287 | 34892 ft | 523 kts | 165° |
| 2026-05-07 18:10 | 25.07340 | 30.59683 | 34893 ft | 522 kts | 166° |
| 2026-05-07 18:11 | 25.00464 | 30.62057 | 34897 ft | 522 kts | 166° |
| 2026-05-07 18:11 | 24.93536 | 30.64452 | 34901 ft | 521 kts | 166° |
| 2026-05-07 18:12 | 24.86621 | 30.66843 | 34902 ft | 520 kts | 166° |
| 2026-05-07 18:12 | 24.79721 | 30.69224 | 34898 ft | 520 kts | 166° |
| 2026-05-07 18:13 | 24.72882 | 30.71588 | 34894 ft | 518 kts | 166° |
| 2026-05-07 18:13 | 24.66001 | 30.73953 | 34899 ft | 518 kts | 166° |
| 2026-05-07 18:14 | 24.59148 | 30.76311 | 34898 ft | 516 kts | 166° |
| 2026-05-07 18:14 | 24.52260 | 30.78661 | 34908 ft | 518 kts | 167° |
| 2026-05-07 18:15 | 24.45448 | 30.80994 | 34902 ft | 515 kts | 166° |
| 2026-05-07 18:15 | 24.38579 | 30.83358 | 34907 ft | 518 kts | 166° |
| 2026-05-07 18:16 | 24.31737 | 30.85697 | 34895 ft | 515 kts | 167° |
| 2026-05-07 18:16 | 24.24886 | 30.88032 | 34895 ft | 515 kts | 167° |
| 2026-05-07 18:17 | 24.18078 | 30.90356 | 34893 ft | 517 kts | 167° |
| 2026-05-07 18:17 | 24.11225 | 30.92694 | 34905 ft | 517 kts | 167° |
| 2026-05-07 18:18 | 24.04377 | 30.95025 | 34916 ft | 515 kts | 167° |
| 2026-05-07 18:18 | 23.97530 | 30.97359 | 34928 ft | 515 kts | 167° |
| 2026-05-07 18:19 | 23.90730 | 30.99671 | 34921 ft | 508 kts | 167° |
| 2026-05-07 18:19 | 23.84015 | 31.01947 | 34921 ft | 509 kts | 167° |
| 2026-05-07 18:20 | 23.77245 | 31.04238 | 34935 ft | 509 kts | 167° |
| 2026-05-07 18:20 | 23.70489 | 31.06528 | 34938 ft | 508 kts | 167° |
| 2026-05-07 18:21 | 23.63730 | 31.08807 | 34942 ft | 508 kts | 167° |
| 2026-05-07 18:21 | 23.57006 | 31.11084 | 34934 ft | 508 kts | 167° |
| 2026-05-07 18:22 | 23.50256 | 31.13364 | 34923 ft | 508 kts | 167° |
| 2026-05-07 18:22 | 23.43520 | 31.15640 | 34927 ft | 507 kts | 167° |
| 2026-05-07 18:23 | 23.36778 | 31.17909 | 34925 ft | 505 kts | 168° |
| 2026-05-07 18:23 | 23.30104 | 31.20146 | 34933 ft | 505 kts | 167° |
| 2026-05-07 18:24 | 23.23374 | 31.22412 | 34935 ft | 506 kts | 167° |
| 2026-05-07 18:24 | 23.16675 | 31.24673 | 34927 ft | 503 kts | 167° |
| 2026-05-07 18:25 | 23.09975 | 31.26911 | 34925 ft | 501 kts | 168° |
| 2026-05-07 18:25 | 23.03342 | 31.29138 | 34928 ft | 502 kts | 167° |
| 2026-05-07 18:26 | 22.96661 | 31.31373 | 34924 ft | 500 kts | 168° |
| 2026-05-07 18:26 | 22.90004 | 31.33598 | 34933 ft | 501 kts | 168° |
| 2026-05-07 18:27 | 22.83346 | 31.35823 | 35318 ft | 503 kts | 168° |
| 2026-05-07 18:27 | 22.80020 | 31.36936 | 35672 ft | 498 kts | 167° |
| 2026-05-07 18:27 | 22.76715 | 31.38038 | 36027 ft | 496 kts | 168° |
| 2026-05-07 18:27 | 22.73422 | 31.39137 | 36360 ft | 494 kts | 168° |
| 2026-05-07 18:28 | 22.70200 | 31.40214 | 36679 ft | 490 kts | 168° |
| 2026-05-07 18:28 | 22.66943 | 31.41301 | 36986 ft | 489 kts | 167° |
| 2026-05-07 18:28 | 22.63711 | 31.42376 | 37278 ft | 484 kts | 168° |
| 2026-05-07 18:28 | 22.60516 | 31.43440 | 37559 ft | 479 kts | 168° |
| 2026-05-07 18:29 | 22.57345 | 31.44493 | 37816 ft | 473 kts | 168° |
| 2026-05-07 18:29 | 22.54213 | 31.45537 | 38025 ft | 470 kts | 168° |
| 2026-05-07 18:29 | 22.51100 | 31.46575 | 38201 ft | 467 kts | 168° |
| 2026-05-07 18:29 | 22.47986 | 31.47606 | 38352 ft | 465 kts | 169° |
| 2026-05-07 18:30 | 22.44894 | 31.48634 | 38480 ft | 465 kts | 168° |
| 2026-05-07 18:30 | 22.41849 | 31.49644 | 38628 ft | 463 kts | 168° |
| 2026-05-07 18:30 | 22.38776 | 31.50662 | 38760 ft | 462 kts | 168° |
| 2026-05-07 18:30 | 22.35705 | 31.51684 | 38927 ft | 462 kts | 168° |
| 2026-05-07 18:31 | 22.32634 | 31.52697 | 38979 ft | 462 kts | 168° |
| 2026-05-07 18:31 | 22.26509 | 31.54727 | 38943 ft | 461 kts | 169° |
| 2026-05-07 18:32 | 22.20416 | 31.56749 | 38930 ft | 458 kts | 169° |
| 2026-05-07 18:32 | 22.14377 | 31.58742 | 38919 ft | 457 kts | 169° |
| 2026-05-07 18:33 | 22.08310 | 31.60748 | 38942 ft | 455 kts | 168° |
| 2026-05-07 18:33 | 22.02240 | 31.62751 | 38938 ft | 459 kts | 169° |
| 2026-05-07 18:34 | 21.96113 | 31.64399 | 38936 ft | 449 kts | 174° |
| 2026-05-07 18:34 | 21.90054 | 31.65773 | 38931 ft | 448 kts | 174° |
| 2026-05-07 18:35 | 21.83953 | 31.67159 | 38931 ft | 448 kts | 174° |
| 2026-05-07 18:35 | 21.77856 | 31.68547 | 38932 ft | 448 kts | 174° |
| 2026-05-07 18:36 | 21.71745 | 31.69939 | 38930 ft | 448 kts | 174° |
| 2026-05-07 18:36 | 21.65686 | 31.71318 | 38928 ft | 448 kts | 174° |
| 2026-05-07 18:37 | 21.59586 | 31.72704 | 38930 ft | 448 kts | 174° |
| 2026-05-07 18:37 | 21.53483 | 31.74090 | 38934 ft | 448 kts | 174° |
| 2026-05-07 18:38 | 21.47384 | 31.75474 | 38929 ft | 447 kts | 174° |
| 2026-05-07 18:38 | 21.41333 | 31.76845 | 38934 ft | 448 kts | 174° |
| 2026-05-07 18:39 | 21.35244 | 31.78226 | 38937 ft | 446 kts | 174° |
| 2026-05-07 18:39 | 21.29163 | 31.79603 | 38927 ft | 447 kts | 174° |
| 2026-05-07 18:40 | 21.23090 | 31.80978 | 38926 ft | 446 kts | 174° |
| 2026-05-07 18:40 | 21.17035 | 31.82343 | 38927 ft | 445 kts | 174° |
| 2026-05-07 18:41 | 21.11022 | 31.83699 | 38927 ft | 444 kts | 174° |
| 2026-05-07 18:41 | 21.04982 | 31.85059 | 38935 ft | 443 kts | 174° |
| 2026-05-07 18:42 | 20.98957 | 31.86419 | 38929 ft | 442 kts | 174° |
| 2026-05-07 18:42 | 20.92950 | 31.87772 | 38928 ft | 441 kts | 174° |
| 2026-05-07 18:43 | 20.86956 | 31.89122 | 38932 ft | 439 kts | 174° |
| 2026-05-07 18:43 | 20.81028 | 31.90454 | 38926 ft | 438 kts | 175° |
| 2026-05-07 18:44 | 20.75074 | 31.91791 | 38929 ft | 437 kts | 175° |
| 2026-05-07 18:44 | 20.69134 | 31.93125 | 38929 ft | 435 kts | 175° |
| 2026-05-07 18:45 | 20.63213 | 31.94454 | 38938 ft | 434 kts | 175° |
| 2026-05-07 18:45 | 20.57345 | 31.95770 | 38940 ft | 433 kts | 175° |
| 2026-05-07 18:46 | 20.51460 | 31.97089 | 38929 ft | 431 kts | 175° |
| 2026-05-07 18:46 | 20.45591 | 31.98401 | 38926 ft | 430 kts | 175° |
| 2026-05-07 18:47 | 20.39741 | 31.99710 | 38928 ft | 429 kts | 175° |
| 2026-05-07 18:47 | 20.33915 | 32.01012 | 38936 ft | 426 kts | 175° |
| 2026-05-07 18:48 | 20.28166 | 32.02295 | 38928 ft | 425 kts | 175° |
| 2026-05-07 18:48 | 20.22371 | 32.03588 | 38940 ft | 425 kts | 175° |
| 2026-05-07 18:49 | 20.16575 | 32.04878 | 38938 ft | 426 kts | 175° |
| 2026-05-07 18:49 | 20.10774 | 32.06169 | 38939 ft | 426 kts | 175° |
| 2026-05-07 18:50 | 20.05012 | 32.07451 | 38938 ft | 426 kts | 175° |
| 2026-05-07 18:50 | 19.99209 | 32.08742 | 38938 ft | 426 kts | 175° |
| 2026-05-07 18:51 | 19.93403 | 32.10033 | 38938 ft | 426 kts | 175° |
| 2026-05-07 18:51 | 19.87598 | 32.11323 | 38940 ft | 426 kts | 175° |
| 2026-05-07 18:52 | 19.81799 | 32.12608 | 38943 ft | 426 kts | 176° |
| 2026-05-07 18:52 | 19.76036 | 32.13885 | 38939 ft | 426 kts | 175° |
| 2026-05-07 18:53 | 19.70236 | 32.15170 | 38943 ft | 425 kts | 175° |
| 2026-05-07 18:53 | 19.64448 | 32.16452 | 38945 ft | 425 kts | 175° |
| 2026-05-07 18:54 | 19.58691 | 32.17726 | 38941 ft | 425 kts | 175° |
| 2026-05-07 18:54 | 19.52901 | 32.19005 | 38940 ft | 425 kts | 175° |
| 2026-05-07 18:55 | 19.47123 | 32.20282 | 38939 ft | 424 kts | 175° |
| 2026-05-07 18:55 | 19.41339 | 32.21560 | 38943 ft | 424 kts | 175° |
| 2026-05-07 18:56 | 19.35566 | 32.22834 | 38939 ft | 423 kts | 175° |
| 2026-05-07 18:56 | 19.29839 | 32.24096 | 38939 ft | 424 kts | 175° |
| 2026-05-07 18:57 | 19.24063 | 32.25369 | 38947 ft | 424 kts | 175° |
| 2026-05-07 18:57 | 19.18298 | 32.26638 | 38950 ft | 423 kts | 175° |
| 2026-05-07 18:58 | 19.12535 | 32.27909 | 38951 ft | 423 kts | 175° |
| 2026-05-07 18:58 | 19.06806 | 32.29168 | 38951 ft | 423 kts | 175° |
| 2026-05-07 18:59 | 19.01055 | 32.30430 | 38951 ft | 422 kts | 175° |
| 2026-05-07 18:59 | 18.95302 | 32.31692 | 38951 ft | 423 kts | 175° |
| 2026-05-07 19:00 | 18.89541 | 32.32956 | 38950 ft | 423 kts | 175° |
| 2026-05-07 19:00 | 18.83830 | 32.34207 | 38951 ft | 422 kts | 175° |
| 2026-05-07 19:01 | 18.78082 | 32.35465 | 38950 ft | 422 kts | 175° |
| 2026-05-07 19:01 | 18.72326 | 32.36726 | 38949 ft | 422 kts | 175° |
| 2026-05-07 19:02 | 18.66569 | 32.37985 | 38950 ft | 423 kts | 175° |
| 2026-05-07 19:02 | 18.60803 | 32.39247 | 38950 ft | 423 kts | 175° |
| 2026-05-07 19:03 | 18.55095 | 32.40495 | 38950 ft | 421 kts | 175° |
| 2026-05-07 19:03 | 18.49346 | 32.41750 | 38951 ft | 422 kts | 175° |
| 2026-05-07 19:04 | 18.43583 | 32.43007 | 38932 ft | 423 kts | 175° |
| 2026-05-07 19:04 | 18.37830 | 32.44262 | 38909 ft | 422 kts | 175° |
| 2026-05-07 19:05 | 18.32112 | 32.45507 | 38910 ft | 423 kts | 175° |
| 2026-05-07 19:05 | 18.26352 | 32.46759 | 38910 ft | 423 kts | 175° |
| 2026-05-07 19:06 | 18.20591 | 32.48012 | 38908 ft | 423 kts | 175° |
| 2026-05-07 19:06 | 18.11949 | 32.49894 | 38910 ft | 423 kts | 175° |
| 2026-05-07 19:07 | 18.06223 | 32.51135 | 38909 ft | 423 kts | 175° |
| 2026-05-07 19:07 | 18.00455 | 32.52385 | 38911 ft | 423 kts | 175° |
| 2026-05-07 19:08 | 17.94689 | 32.53637 | 38910 ft | 424 kts | 175° |
| 2026-05-07 19:08 | 17.88910 | 32.54891 | 38912 ft | 424 kts | 175° |
| 2026-05-07 19:09 | 17.83137 | 32.56142 | 38909 ft | 424 kts | 175° |
| 2026-05-07 19:09 | 17.77399 | 32.57382 | 38908 ft | 423 kts | 175° |
| 2026-05-07 19:10 | 17.71630 | 32.58631 | 38915 ft | 423 kts | 175° |
| 2026-05-07 19:10 | 17.65855 | 32.59879 | 38910 ft | 424 kts | 175° |
| 2026-05-07 19:11 | 17.60078 | 32.61128 | 38913 ft | 424 kts | 175° |
| 2026-05-07 19:11 | 17.54345 | 32.62364 | 38911 ft | 424 kts | 175° |
| 2026-05-07 19:12 | 17.48570 | 32.63610 | 38912 ft | 424 kts | 175° |
| 2026-05-07 19:12 | 17.42797 | 32.64857 | 38908 ft | 424 kts | 175° |
| 2026-05-07 19:13 | 17.37014 | 32.66103 | 38909 ft | 424 kts | 175° |
| 2026-05-07 19:13 | 17.31269 | 32.67340 | 38911 ft | 424 kts | 174° |
| 2026-05-07 19:14 | 17.25482 | 32.68584 | 38908 ft | 425 kts | 175° |
| 2026-05-07 19:14 | 17.19681 | 32.69828 | 38909 ft | 425 kts | 175° |
| 2026-05-07 19:15 | 17.13881 | 32.71068 | 38910 ft | 426 kts | 175° |
| 2026-05-07 19:15 | 17.08119 | 32.72300 | 38928 ft | 425 kts | 175° |
| 2026-05-07 19:16 | 17.02324 | 32.73541 | 38970 ft | 426 kts | 174° |
| 2026-05-07 19:16 | 16.96514 | 32.74780 | 38977 ft | 426 kts | 175° |
| 2026-05-07 19:17 | 16.90704 | 32.76018 | 38981 ft | 426 kts | 174° |
| 2026-05-07 19:17 | 16.84938 | 32.77249 | 38981 ft | 426 kts | 174° |
| 2026-05-07 19:18 | 16.79125 | 32.78486 | 38971 ft | 427 kts | 175° |
| 2026-05-07 19:18 | 16.73302 | 32.79726 | 38969 ft | 428 kts | 174° |
| 2026-05-07 19:19 | 16.67476 | 32.80967 | 38979 ft | 427 kts | 174° |
| 2026-05-07 19:19 | 16.61687 | 32.82200 | 38980 ft | 427 kts | 174° |
| 2026-05-07 19:20 | 16.55867 | 32.83436 | 38981 ft | 427 kts | 174° |
| 2026-05-07 19:20 | 16.50027 | 32.84513 | 38979 ft | 425 kts | 177° |
| 2026-05-07 19:21 | 16.44179 | 32.85422 | 38979 ft | 426 kts | 177° |
| 2026-05-07 19:21 | 16.38318 | 32.86332 | 38982 ft | 426 kts | 177° |
| 2026-05-07 19:22 | 16.32501 | 32.87242 | 38982 ft | 426 kts | 177° |
| 2026-05-07 19:22 | 16.26640 | 32.88159 | 38988 ft | 425 kts | 177° |
| 2026-05-07 19:23 | 16.20783 | 32.89072 | 38990 ft | 426 kts | 177° |
| 2026-05-07 19:23 | 16.14917 | 32.89988 | 38987 ft | 426 kts | 177° |
| 2026-05-07 19:24 | 16.09093 | 32.90901 | 39003 ft | 426 kts | 177° |
| 2026-05-07 19:24 | 16.03225 | 32.91818 | 39015 ft | 426 kts | 177° |
| 2026-05-07 19:25 | 15.97359 | 32.92732 | 39019 ft | 426 kts | 177° |
| 2026-05-07 19:25 | 15.91469 | 32.93647 | 39012 ft | 429 kts | 177° |
| 2026-05-07 19:26 | 15.85608 | 32.94561 | 39027 ft | 429 kts | 177° |
| 2026-05-07 19:26 | 15.79702 | 32.95483 | 39016 ft | 429 kts | 177° |
| 2026-05-07 19:27 | 15.73794 | 32.96402 | 39023 ft | 429 kts | 177° |
| 2026-05-07 19:27 | 15.67886 | 32.97320 | 39027 ft | 429 kts | 177° |
| 2026-05-07 19:28 | 15.61984 | 32.98238 | 39028 ft | 429 kts | 177° |
| 2026-05-07 19:28 | 15.56115 | 32.99149 | 39031 ft | 429 kts | 177° |
| 2026-05-07 19:29 | 15.50213 | 33.00063 | 39031 ft | 429 kts | 177° |
| 2026-05-07 19:29 | 15.44309 | 33.00974 | 39030 ft | 429 kts | 177° |
| 2026-05-07 19:30 | 15.38396 | 33.01894 | 39030 ft | 430 kts | 177° |
| 2026-05-07 19:30 | 15.32525 | 33.02801 | 39032 ft | 430 kts | 177° |
| 2026-05-07 19:31 | 15.26606 | 33.03714 | 39039 ft | 430 kts | 177° |
| 2026-05-07 19:31 | 15.20683 | 33.04630 | 39038 ft | 431 kts | 177° |
| 2026-05-07 19:32 | 15.14749 | 33.05548 | 39040 ft | 431 kts | 176° |
| 2026-05-07 19:32 | 15.08859 | 33.06458 | 39041 ft | 431 kts | 177° |
| 2026-05-07 19:33 | 15.02927 | 33.07375 | 39048 ft | 431 kts | 177° |
| 2026-05-07 19:33 | 14.96996 | 33.08293 | 39050 ft | 431 kts | 176° |
| 2026-05-07 19:34 | 14.91054 | 33.09213 | 39050 ft | 432 kts | 176° |
| 2026-05-07 19:34 | 14.85157 | 33.10117 | 39050 ft | 431 kts | 177° |
| 2026-05-07 19:35 | 14.79219 | 33.11034 | 39052 ft | 432 kts | 176° |
| 2026-05-07 19:35 | 14.73277 | 33.11949 | 39059 ft | 432 kts | 176° |
| 2026-05-07 19:36 | 14.67324 | 33.12867 | 39073 ft | 433 kts | 176° |
| 2026-05-07 19:36 | 14.61366 | 33.13785 | 39080 ft | 433 kts | 176° |
| 2026-05-07 19:37 | 14.55454 | 33.14693 | 39084 ft | 433 kts | 176° |
| 2026-05-07 19:37 | 14.49495 | 33.15611 | 39090 ft | 433 kts | 176° |
| 2026-05-07 19:38 | 14.43528 | 33.16529 | 39090 ft | 433 kts | 176° |
| 2026-05-07 19:38 | 14.37562 | 33.17444 | 39089 ft | 433 kts | 176° |
| 2026-05-07 19:39 | 14.31642 | 33.18352 | 39096 ft | 434 kts | 176° |
| 2026-05-07 19:39 | 14.25669 | 33.19269 | 39100 ft | 434 kts | 176° |
| 2026-05-07 19:40 | 14.19703 | 33.20188 | 39100 ft | 433 kts | 176° |
| 2026-05-07 19:40 | 14.13734 | 33.21104 | 39100 ft | 433 kts | 176° |
| 2026-05-07 19:41 | 14.07809 | 33.22015 | 39105 ft | 433 kts | 176° |
| 2026-05-07 19:41 | 14.01845 | 33.22933 | 39110 ft | 434 kts | 176° |
| 2026-05-07 19:42 | 13.95870 | 33.23859 | 39110 ft | 435 kts | 176° |
| 2026-05-07 19:42 | 13.89873 | 33.24776 | 39110 ft | 436 kts | 176° |
| 2026-05-07 19:43 | 13.83908 | 33.25690 | 39110 ft | 436 kts | 176° |
| 2026-05-07 19:43 | 13.77910 | 33.26604 | 39113 ft | 435 kts | 176° |
| 2026-05-07 19:44 | 13.71915 | 33.27522 | 39121 ft | 436 kts | 176° |
| 2026-05-07 19:44 | 13.65923 | 33.28438 | 39120 ft | 436 kts | 176° |
| 2026-05-07 19:45 | 13.59923 | 33.29349 | 39121 ft | 436 kts | 176° |
| 2026-05-07 19:45 | 13.53956 | 33.30260 | 39120 ft | 436 kts | 176° |
| 2026-05-07 19:46 | 13.47955 | 33.31177 | 39122 ft | 436 kts | 176° |
| 2026-05-07 19:46 | 13.41963 | 33.32095 | 39127 ft | 435 kts | 176° |
| 2026-05-07 19:47 | 13.36009 | 33.33002 | 39132 ft | 436 kts | 176° |
| 2026-05-07 19:47 | 13.30010 | 33.33910 | 39129 ft | 436 kts | 176° |
| 2026-05-07 19:48 | 13.24017 | 33.34824 | 39128 ft | 435 kts | 176° |
| 2026-05-07 19:48 | 13.18017 | 33.35739 | 39135 ft | 436 kts | 176° |
| 2026-05-07 19:49 | 13.12013 | 33.36649 | 39135 ft | 436 kts | 176° |
| 2026-05-07 19:49 | 13.06053 | 33.37557 | 39143 ft | 436 kts | 176° |
| 2026-05-07 19:50 | 13.00051 | 33.38466 | 39136 ft | 436 kts | 176° |
| 2026-05-07 19:50 | 12.94047 | 33.39373 | 39141 ft | 436 kts | 176° |
| 2026-05-07 19:51 | 12.88075 | 33.40279 | 39150 ft | 436 kts | 176° |
| 2026-05-07 19:51 | 12.82064 | 33.41198 | 39149 ft | 437 kts | 175° |
| 2026-05-07 19:52 | 12.76039 | 33.42115 | 39154 ft | 438 kts | 175° |
| 2026-05-07 19:52 | 12.70010 | 33.43029 | 39153 ft | 438 kts | 176° |
| 2026-05-07 19:53 | 12.63993 | 33.43935 | 39154 ft | 437 kts | 176° |
| 2026-05-07 19:53 | 12.58012 | 33.44840 | 39158 ft | 438 kts | 175° |
| 2026-05-07 19:54 | 12.51993 | 33.45752 | 39160 ft | 438 kts | 175° |
| 2026-05-07 19:54 | 12.45965 | 33.46664 | 39160 ft | 438 kts | 175° |
| 2026-05-07 19:55 | 12.39939 | 33.47573 | 39159 ft | 438 kts | 175° |
| 2026-05-07 19:55 | 12.33951 | 33.48480 | 39160 ft | 438 kts | 175° |
| 2026-05-07 19:56 | 12.27922 | 33.49391 | 39168 ft | 438 kts | 175° |
| 2026-05-07 19:56 | 12.21897 | 33.50296 | 39170 ft | 438 kts | 175° |
| 2026-05-07 19:57 | 12.15864 | 33.51205 | 39170 ft | 438 kts | 175° |
| 2026-05-07 19:57 | 12.09870 | 33.52111 | 39171 ft | 439 kts | 175° |
| 2026-05-07 19:58 | 12.03830 | 33.53021 | 39171 ft | 439 kts | 175° |
| 2026-05-07 19:58 | 11.97803 | 33.53931 | 39177 ft | 438 kts | 175° |
| 2026-05-07 19:59 | 11.91762 | 33.54840 | 39180 ft | 439 kts | 175° |
| 2026-05-07 19:59 | 11.85757 | 33.55745 | 39180 ft | 439 kts | 175° |
| 2026-05-07 20:00 | 11.79710 | 33.56654 | 39182 ft | 439 kts | 175° |
| 2026-05-07 20:00 | 11.73673 | 33.57566 | 39179 ft | 438 kts | 175° |
| 2026-05-07 20:01 | 11.67635 | 33.58477 | 39182 ft | 439 kts | 175° |
| 2026-05-07 20:01 | 11.61636 | 33.59380 | 39186 ft | 439 kts | 175° |
| 2026-05-07 20:02 | 11.55587 | 33.60285 | 39184 ft | 439 kts | 175° |
| 2026-05-07 20:02 | 11.49541 | 33.61190 | 39186 ft | 439 kts | 175° |
| 2026-05-07 20:03 | 11.43488 | 33.62095 | 39192 ft | 440 kts | 175° |
| 2026-05-07 20:03 | 11.37479 | 33.62999 | 39192 ft | 439 kts | 175° |
| 2026-05-07 20:04 | 11.31432 | 33.63915 | 39196 ft | 440 kts | 175° |
| 2026-05-07 20:04 | 11.25378 | 33.64825 | 39195 ft | 440 kts | 175° |
| 2026-05-07 20:05 | 11.19327 | 33.65729 | 39195 ft | 439 kts | 175° |
| 2026-05-07 20:05 | 11.13316 | 33.66628 | 39201 ft | 440 kts | 175° |
| 2026-05-07 20:06 | 11.07262 | 33.67536 | 39204 ft | 440 kts | 174° |
| 2026-05-07 20:06 | 11.01203 | 33.68440 | 39203 ft | 440 kts | 174° |
| 2026-05-07 20:07 | 10.95149 | 33.69341 | 39210 ft | 440 kts | 174° |
| 2026-05-07 20:07 | 10.89126 | 33.70239 | 39208 ft | 440 kts | 174° |
| 2026-05-07 20:08 | 10.83074 | 33.71147 | 39204 ft | 440 kts | 174° |
| 2026-05-07 20:08 | 10.77010 | 33.72058 | 39210 ft | 441 kts | 174° |
| 2026-05-07 20:09 | 10.70950 | 33.72958 | 39208 ft | 440 kts | 174° |
| 2026-05-07 20:10 | 10.61890 | 33.74306 | 39211 ft | 440 kts | 174° |
| 2026-05-07 20:10 | 10.55823 | 33.75208 | 39218 ft | 441 kts | 174° |
| 2026-05-07 20:11 | 10.49753 | 33.76114 | 39218 ft | 441 kts | 174° |
| 2026-05-07 20:11 | 10.43679 | 33.77019 | 39219 ft | 441 kts | 174° |
| 2026-05-07 20:12 | 10.37646 | 33.77919 | 39219 ft | 441 kts | 174° |
| 2026-05-07 20:12 | 10.31575 | 33.78824 | 39220 ft | 441 kts | 174° |
| 2026-05-07 20:13 | 10.25487 | 33.79732 | 39221 ft | 442 kts | 174° |
| 2026-05-07 20:13 | 10.19409 | 33.80637 | 39221 ft | 441 kts | 174° |
| 2026-05-07 20:14 | 10.13324 | 33.81541 | 39221 ft | 442 kts | 174° |
| 2026-05-07 20:14 | 10.07284 | 33.82437 | 39229 ft | 442 kts | 174° |
| 2026-05-07 20:15 | 10.01199 | 33.83338 | 39231 ft | 442 kts | 174° |
| 2026-05-07 20:15 | 9.95116 | 33.84243 | 39229 ft | 442 kts | 174° |
| 2026-05-07 20:16 | 9.89036 | 33.85148 | 39229 ft | 441 kts | 174° |
| 2026-05-07 20:16 | 9.82954 | 33.86050 | 39231 ft | 442 kts | 174° |
| 2026-05-07 20:17 | 9.76913 | 33.86949 | 39230 ft | 442 kts | 174° |
| 2026-05-07 20:17 | 9.70821 | 33.87854 | 39230 ft | 442 kts | 174° |
| 2026-05-07 20:18 | 9.64725 | 33.88757 | 39230 ft | 443 kts | 174° |
| 2026-05-07 20:18 | 9.58629 | 33.89660 | 39230 ft | 443 kts | 174° |
| 2026-05-07 20:19 | 9.52568 | 33.90552 | 39238 ft | 443 kts | 174° |
| 2026-05-07 20:19 | 9.46456 | 33.91453 | 39240 ft | 444 kts | 174° |
| 2026-05-07 20:20 | 9.40341 | 33.92355 | 39240 ft | 444 kts | 174° |
| 2026-05-07 20:20 | 9.34221 | 33.93284 | 39239 ft | 446 kts | 171° |
| 2026-05-07 20:21 | 9.28237 | 33.94859 | 39240 ft | 448 kts | 166° |
| 2026-05-07 20:21 | 9.22224 | 33.96556 | 39240 ft | 448 kts | 166° |
| 2026-05-07 20:22 | 9.16204 | 33.98225 | 39239 ft | 449 kts | 166° |
| 2026-05-07 20:22 | 9.10162 | 33.99902 | 39240 ft | 450 kts | 167° |
| 2026-05-07 20:23 | 9.04112 | 34.01577 | 39240 ft | 452 kts | 167° |
| 2026-05-07 20:23 | 8.98079 | 34.03246 | 39241 ft | 453 kts | 167° |
| 2026-05-07 20:24 | 8.91990 | 34.04930 | 39176 ft | 454 kts | 166° |
| 2026-05-07 20:24 | 8.85897 | 34.06613 | 39148 ft | 454 kts | 166° |
| 2026-05-07 20:25 | 8.79794 | 34.08308 | 39145 ft | 455 kts | 166° |
| 2026-05-07 20:25 | 8.73719 | 34.09986 | 39138 ft | 456 kts | 166° |
| 2026-05-07 20:26 | 8.67596 | 34.11675 | 39130 ft | 457 kts | 166° |
| 2026-05-07 20:26 | 8.61464 | 34.13371 | 39129 ft | 457 kts | 166° |
| 2026-05-07 20:27 | 8.56361 | 34.14791 | 39129 ft | 458 kts | 166° |
| 2026-05-07 20:27 | 8.50215 | 34.16487 | 39129 ft | 458 kts | 166° |
| 2026-05-07 20:28 | 8.43064 | 34.18456 | 39129 ft | 459 kts | 166° |
| 2026-05-07 20:28 | 8.36912 | 34.20169 | 39126 ft | 459 kts | 166° |
| 2026-05-07 20:29 | 8.31792 | 34.21582 | 39120 ft | 459 kts | 166° |
| 2026-05-07 20:29 | 8.25625 | 34.23278 | 39121 ft | 460 kts | 166° |
| 2026-05-07 20:30 | 8.18467 | 34.25254 | 39120 ft | 459 kts | 166° |
| 2026-05-07 20:30 | 8.13340 | 34.26666 | 39119 ft | 459 kts | 166° |
| 2026-05-07 20:31 | 8.07180 | 34.28367 | 39111 ft | 459 kts | 166° |
| 2026-05-07 20:31 | 8.01010 | 34.30055 | 39111 ft | 460 kts | 166° |
| 2026-05-07 20:32 | 7.94834 | 34.31741 | 39110 ft | 460 kts | 166° |
| 2026-05-07 20:32 | 7.88662 | 34.33427 | 39106 ft | 460 kts | 166° |
| 2026-05-07 20:33 | 7.82528 | 34.35103 | 39101 ft | 460 kts | 166° |
| 2026-05-07 20:33 | 7.76351 | 34.36794 | 39101 ft | 460 kts | 166° |
| 2026-05-07 20:34 | 7.70170 | 34.38478 | 39102 ft | 460 kts | 166° |
| 2026-05-07 20:34 | 7.63985 | 34.40164 | 39091 ft | 460 kts | 166° |
| 2026-05-07 20:35 | 7.57842 | 34.41839 | 39091 ft | 460 kts | 166° |
| 2026-05-07 20:35 | 7.51657 | 34.43525 | 39090 ft | 460 kts | 166° |
| 2026-05-07 20:36 | 7.45477 | 34.45204 | 39081 ft | 460 kts | 166° |
| 2026-05-07 20:36 | 7.39293 | 34.46884 | 39081 ft | 460 kts | 166° |
| 2026-05-07 20:37 | 7.33108 | 34.48566 | 39079 ft | 461 kts | 166° |
| 2026-05-07 20:37 | 7.26967 | 34.50244 | 39070 ft | 460 kts | 166° |
| 2026-05-07 20:38 | 7.20786 | 34.51928 | 39070 ft | 460 kts | 166° |
| 2026-05-07 20:38 | 7.14608 | 34.53612 | 39062 ft | 460 kts | 166° |
| 2026-05-07 20:39 | 7.08471 | 34.55282 | 39060 ft | 460 kts | 166° |
| 2026-05-07 20:39 | 7.02292 | 34.56965 | 39055 ft | 460 kts | 166° |
| 2026-05-07 20:40 | 6.96109 | 34.58646 | 39051 ft | 460 kts | 166° |
| 2026-05-07 20:40 | 6.89936 | 34.60330 | 39050 ft | 460 kts | 166° |
| 2026-05-07 20:41 | 6.83755 | 34.62009 | 39042 ft | 460 kts | 166° |
| 2026-05-07 20:41 | 6.77621 | 34.63674 | 39040 ft | 459 kts | 166° |
| 2026-05-07 20:42 | 6.71455 | 34.65354 | 39031 ft | 460 kts | 166° |
| 2026-05-07 20:42 | 6.65278 | 34.67027 | 39030 ft | 460 kts | 166° |
| 2026-05-07 20:43 | 6.59089 | 34.68654 | 39023 ft | 460 kts | 166° |
| 2026-05-07 20:43 | 6.52898 | 34.70279 | 39020 ft | 460 kts | 166° |
| 2026-05-07 20:44 | 6.46759 | 34.71893 | 39009 ft | 459 kts | 166° |
| 2026-05-07 20:44 | 6.40575 | 34.73524 | 39016 ft | 459 kts | 166° |
| 2026-05-07 20:45 | 6.34390 | 34.75156 | 39004 ft | 459 kts | 166° |
| 2026-05-07 20:45 | 6.28205 | 34.76783 | 39002 ft | 459 kts | 166° |
| 2026-05-07 20:46 | 6.22023 | 34.78405 | 38996 ft | 460 kts | 166° |
| 2026-05-07 20:46 | 6.15876 | 34.80014 | 38991 ft | 459 kts | 166° |
| 2026-05-07 20:47 | 6.09702 | 34.81636 | 38982 ft | 459 kts | 166° |
| 2026-05-07 20:47 | 6.03517 | 34.83264 | 38983 ft | 459 kts | 166° |
| 2026-05-07 20:48 | 5.97331 | 34.84892 | 38973 ft | 459 kts | 166° |
| 2026-05-07 20:48 | 5.91192 | 34.86504 | 38973 ft | 459 kts | 166° |
| 2026-05-07 20:49 | 5.85017 | 34.88124 | 38962 ft | 459 kts | 166° |
| 2026-05-07 20:49 | 5.78845 | 34.89760 | 38952 ft | 459 kts | 166° |
| 2026-05-07 20:50 | 5.72674 | 34.91384 | 38950 ft | 459 kts | 166° |
| 2026-05-07 20:50 | 5.66495 | 34.93008 | 38941 ft | 459 kts | 166° |
| 2026-05-07 20:51 | 5.60356 | 34.94621 | 38941 ft | 458 kts | 166° |
| 2026-05-07 20:51 | 5.54186 | 34.96235 | 38932 ft | 458 kts | 166° |
| 2026-05-07 20:52 | 5.48018 | 34.97860 | 38943 ft | 458 kts | 166° |
| 2026-05-07 20:52 | 5.41848 | 34.99482 | 38967 ft | 459 kts | 166° |
| 2026-05-07 20:53 | 5.35717 | 35.01091 | 38963 ft | 458 kts | 166° |
| 2026-05-07 20:53 | 5.29545 | 35.02711 | 38961 ft | 459 kts | 166° |
| 2026-05-07 20:54 | 5.23386 | 35.04393 | 38953 ft | 459 kts | 165° |
| 2026-05-07 20:54 | 5.17232 | 35.06075 | 38949 ft | 458 kts | 165° |
| 2026-05-07 20:55 | 5.11122 | 35.07741 | 38940 ft | 458 kts | 165° |
| 2026-05-07 20:55 | 5.04967 | 35.09421 | 38939 ft | 458 kts | 165° |
| 2026-05-07 20:56 | 4.98811 | 35.11100 | 38934 ft | 459 kts | 165° |
| 2026-05-07 20:56 | 4.92653 | 35.12783 | 38918 ft | 458 kts | 165° |
| 2026-05-07 20:57 | 4.86537 | 35.14448 | 38920 ft | 459 kts | 165° |
| 2026-05-07 20:57 | 4.80371 | 35.16127 | 38912 ft | 459 kts | 165° |
| 2026-05-07 20:58 | 4.74202 | 35.17807 | 38910 ft | 460 kts | 165° |
| 2026-05-07 20:58 | 4.68028 | 35.19491 | 38908 ft | 460 kts | 165° |
| 2026-05-07 20:59 | 4.61848 | 35.21170 | 38901 ft | 460 kts | 165° |
| 2026-05-07 20:59 | 4.55712 | 35.22841 | 38890 ft | 460 kts | 165° |
| 2026-05-07 21:00 | 4.49533 | 35.24520 | 38891 ft | 461 kts | 165° |
| 2026-05-07 21:00 | 4.43347 | 35.26202 | 38884 ft | 461 kts | 165° |
| 2026-05-07 21:01 | 4.37197 | 35.27874 | 38882 ft | 461 kts | 165° |
| 2026-05-07 21:01 | 4.31008 | 35.29558 | 38872 ft | 461 kts | 165° |
| 2026-05-07 21:02 | 4.24813 | 35.31241 | 38864 ft | 461 kts | 165° |
| 2026-05-07 21:02 | 4.18613 | 35.32928 | 38859 ft | 462 kts | 165° |
| 2026-05-07 21:03 | 4.12418 | 35.34612 | 38854 ft | 462 kts | 165° |
| 2026-05-07 21:03 | 4.06258 | 35.36288 | 38850 ft | 462 kts | 165° |
| 2026-05-07 21:04 | 4.00055 | 35.37978 | 38845 ft | 462 kts | 165° |
| 2026-05-07 21:04 | 3.93831 | 35.39612 | 38841 ft | 463 kts | 166° |
| 2026-05-07 21:05 | 3.87597 | 35.41228 | 38832 ft | 463 kts | 166° |
| 2026-05-07 21:05 | 3.81402 | 35.42841 | 38831 ft | 463 kts | 166° |
| 2026-05-07 21:06 | 3.75167 | 35.44465 | 38820 ft | 463 kts | 166° |
| 2026-05-07 21:06 | 3.68936 | 35.46091 | 38823 ft | 462 kts | 166° |
| 2026-05-07 21:07 | 3.62746 | 35.47706 | 38813 ft | 458 kts | 166° |
| 2026-05-07 21:07 | 3.56620 | 35.49305 | 38812 ft | 458 kts | 166° |
| 2026-05-07 21:08 | 3.50452 | 35.50915 | 38801 ft | 458 kts | 166° |
| 2026-05-07 21:08 | 3.44281 | 35.52525 | 38799 ft | 458 kts | 166° |
| 2026-05-07 21:09 | 3.38112 | 35.54132 | 38800 ft | 458 kts | 166° |
| 2026-05-07 21:09 | 3.31946 | 35.55738 | 38791 ft | 458 kts | 166° |
| 2026-05-07 21:10 | 3.25823 | 35.57333 | 38791 ft | 458 kts | 166° |
| 2026-05-07 21:10 | 3.19656 | 35.58939 | 38789 ft | 458 kts | 166° |
| 2026-05-07 21:11 | 3.13495 | 35.60544 | 38793 ft | 458 kts | 166° |
| 2026-05-07 21:11 | 3.04123 | 35.62339 | 38789 ft | 457 kts | 172° |
| 2026-05-07 21:12 | 2.97879 | 35.63325 | 38786 ft | 457 kts | 172° |
| 2026-05-07 21:12 | 2.91598 | 35.64328 | 38796 ft | 457 kts | 172° |
| 2026-05-07 21:13 | 2.85317 | 35.65334 | 38799 ft | 457 kts | 172° |
| 2026-05-07 21:13 | 2.79043 | 35.66346 | 38798 ft | 457 kts | 172° |
| 2026-05-07 21:14 | 2.72761 | 35.67353 | 38809 ft | 457 kts | 172° |
| 2026-05-07 21:14 | 2.66526 | 35.68356 | 38818 ft | 457 kts | 172° |
| 2026-05-07 21:15 | 2.60247 | 35.69363 | 38827 ft | 457 kts | 172° |
| 2026-05-07 21:15 | 2.53973 | 35.70367 | 38841 ft | 457 kts | 172° |
| 2026-05-07 21:16 | 2.47693 | 35.71372 | 38854 ft | 457 kts | 172° |
| 2026-05-07 21:16 | 2.41462 | 35.72371 | 38868 ft | 457 kts | 172° |
| 2026-05-07 21:17 | 2.35186 | 35.73377 | 38886 ft | 457 kts | 172° |
| 2026-05-07 21:17 | 2.28905 | 35.74385 | 38902 ft | 457 kts | 172° |
| 2026-05-07 21:18 | 2.22627 | 35.75390 | 38930 ft | 457 kts | 172° |
| 2026-05-07 21:18 | 2.16392 | 35.76386 | 38944 ft | 457 kts | 172° |
| 2026-05-07 21:19 | 2.10113 | 35.77392 | 38965 ft | 457 kts | 172° |
| 2026-05-07 21:19 | 2.03840 | 35.78396 | 38989 ft | 457 kts | 172° |
| 2026-05-07 21:20 | 1.97564 | 35.79402 | 39001 ft | 457 kts | 172° |
| 2026-05-07 21:20 | 1.91287 | 35.80407 | 39039 ft | 457 kts | 172° |
| 2026-05-07 21:21 | 1.85057 | 35.81404 | 39062 ft | 457 kts | 172° |
| 2026-05-07 21:21 | 1.78777 | 35.82410 | 39085 ft | 457 kts | 172° |
| 2026-05-07 21:22 | 1.72503 | 35.83415 | 39098 ft | 457 kts | 172° |
| 2026-05-07 21:22 | 1.66224 | 35.84419 | 39108 ft | 457 kts | 172° |
| 2026-05-07 21:23 | 1.59993 | 35.85427 | 39122 ft | 457 kts | 171° |
| 2026-05-07 21:23 | 1.53734 | 35.86541 | 39137 ft | 457 kts | 171° |
| 2026-05-07 21:24 | 1.47471 | 35.87656 | 39143 ft | 457 kts | 171° |
| 2026-05-07 21:24 | 1.41207 | 35.88758 | 39157 ft | 457 kts | 171° |
| 2026-05-07 21:25 | 1.34947 | 35.89861 | 39171 ft | 457 kts | 171° |
| 2026-05-07 21:25 | 1.28726 | 35.90959 | 39172 ft | 457 kts | 171° |
| 2026-05-07 21:26 | 1.22431 | 35.92063 | 39208 ft | 462 kts | 171° |
| 2026-05-07 21:26 | 1.16072 | 35.93181 | 39230 ft | 464 kts | 171° |
| 2026-05-07 21:27 | 1.09718 | 35.94297 | 39245 ft | 464 kts | 171° |
| 2026-05-07 21:27 | 1.03360 | 35.95419 | 39249 ft | 464 kts | 171° |
| 2026-05-07 21:28 | 0.97042 | 35.96534 | 39258 ft | 464 kts | 171° |
| 2026-05-07 21:28 | 0.90687 | 35.97652 | 39293 ft | 464 kts | 171° |
| 2026-05-07 21:29 | 0.84324 | 35.98774 | 39309 ft | 464 kts | 171° |
| 2026-05-07 21:29 | 0.77968 | 35.99892 | 39307 ft | 464 kts | 171° |
| 2026-05-07 21:30 | 0.71645 | 36.01008 | 39310 ft | 464 kts | 171° |
| 2026-05-07 21:30 | 0.65279 | 36.02129 | 39309 ft | 465 kts | 171° |
| 2026-05-07 21:31 | 0.58912 | 36.03246 | 39311 ft | 465 kts | 171° |
| 2026-05-07 21:31 | 0.52541 | 36.04364 | 39311 ft | 465 kts | 171° |
| 2026-05-07 21:32 | 0.46215 | 36.05479 | 39297 ft | 465 kts | 171° |
| 2026-05-07 21:32 | 0.39845 | 36.06597 | 39285 ft | 465 kts | 171° |
| 2026-05-07 21:33 | 0.33475 | 36.07722 | 39278 ft | 465 kts | 171° |
| 2026-05-07 21:33 | 0.27104 | 36.08845 | 39272 ft | 465 kts | 171° |
| 2026-05-07 21:34 | 0.20730 | 36.09965 | 39274 ft | 465 kts | 171° |
| 2026-05-07 21:34 | 0.14410 | 36.11079 | 39268 ft | 465 kts | 171° |
| 2026-05-07 21:35 | 0.08040 | 36.12195 | 39260 ft | 465 kts | 171° |
| 2026-05-07 21:35 | 0.01672 | 36.13310 | 39261 ft | 465 kts | 171° |
| 2026-05-07 21:36 | -0.04649 | 36.14427 | 39245 ft | 465 kts | 170° |
| 2026-05-07 21:36 | -0.11016 | 36.15553 | 39242 ft | 463 kts | 171° |
| 2026-05-07 21:37 | -0.17312 | 36.16659 | 39253 ft | 459 kts | 171° |
| 2026-05-07 21:37 | -0.23594 | 36.17763 | 39258 ft | 457 kts | 171° |
| 2026-05-07 21:38 | -0.26702 | 36.18307 | 38718 ft | 454 kts | 171° |
| 2026-05-07 21:38 | -0.29839 | 36.18858 | 37796 ft | 460 kts | 171° |
| 2026-05-07 21:38 | -0.32998 | 36.19413 | 37017 ft | 461 kts | 170° |
| 2026-05-07 21:38 | -0.36148 | 36.19968 | 36224 ft | 460 kts | 170° |
| 2026-05-07 21:39 | -0.39263 | 36.20518 | 35336 ft | 461 kts | 170° |
| 2026-05-07 21:39 | -0.42442 | 36.21081 | 34257 ft | 467 kts | 170° |
| 2026-05-07 21:39 | -0.45647 | 36.21648 | 33262 ft | 469 kts | 170° |
| 2026-05-07 21:39 | -0.48877 | 36.22219 | 32091 ft | 474 kts | 170° |
| 2026-05-07 21:40 | -0.52148 | 36.22796 | 30859 ft | 480 kts | 170° |
| 2026-05-07 21:40 | -0.55448 | 36.23376 | 29709 ft | 483 kts | 170° |
| 2026-05-07 21:40 | -0.58763 | 36.23959 | 28457 ft | 487 kts | 170° |
| 2026-05-07 21:40 | -0.62122 | 36.24550 | 27141 ft | 490 kts | 170° |
| 2026-05-07 21:41 | -0.65488 | 36.25143 | 25777 ft | 494 kts | 169° |
| 2026-05-07 21:41 | -0.68832 | 36.25731 | 24502 ft | 494 kts | 169° |
| 2026-05-07 21:41 | -0.72211 | 36.26327 | 23535 ft | 492 kts | 170° |
| 2026-05-07 21:41 | -0.75569 | 36.26918 | 22766 ft | 488 kts | 170° |
| 2026-05-07 21:42 | -0.78894 | 36.27504 | 22256 ft | 483 kts | 170° |
| 2026-05-07 21:42 | -0.82193 | 36.28084 | 21883 ft | 479 kts | 170° |
| 2026-05-07 21:42 | -0.85467 | 36.28660 | 21502 ft | 474 kts | 170° |
| 2026-05-07 21:42 | -0.88683 | 36.29224 | 20929 ft | 466 kts | 170° |
| 2026-05-07 21:43 | -0.91855 | 36.29778 | 20256 ft | 459 kts | 170° |
| 2026-05-07 21:43 | -0.94980 | 36.30326 | 19577 ft | 454 kts | 170° |
| 2026-05-07 21:43 | -0.98070 | 36.30870 | 18913 ft | 448 kts | 170° |
| 2026-05-07 21:43 | -1.01080 | 36.31400 | 18232 ft | 443 kts | 170° |
| 2026-05-07 21:44 | -1.04103 | 36.31932 | 17516 ft | 440 kts | 170° |
| 2026-05-07 21:44 | -1.07099 | 36.32460 | 16869 ft | 435 kts | 170° |
| 2026-05-07 21:44 | -1.10056 | 36.32980 | 16282 ft | 429 kts | 170° |
| 2026-05-07 21:44 | -1.12976 | 36.33494 | 15708 ft | 423 kts | 170° |
| 2026-05-07 21:45 | -1.15856 | 36.34001 | 15165 ft | 417 kts | 170° |
| 2026-05-07 21:45 | -1.18690 | 36.34500 | 14706 ft | 410 kts | 170° |
| 2026-05-07 21:45 | -1.21471 | 36.34991 | 14284 ft | 403 kts | 170° |
| 2026-05-07 21:45 | -1.24226 | 36.35476 | 13863 ft | 402 kts | 170° |
| 2026-05-07 21:46 | -1.26936 | 36.35952 | 13402 ft | 399 kts | 170° |
| 2026-05-07 21:46 | -1.29649 | 36.36483 | 12836 ft | 396 kts | 165° |
| 2026-05-07 21:46 | -1.32153 | 36.37572 | 12300 ft | 390 kts | 147° |
| 2026-05-07 21:46 | -1.34133 | 36.39337 | 11941 ft | 376 kts | 129° |
| 2026-05-07 21:47 | -1.35387 | 36.41549 | 11680 ft | 360 kts | 109° |
| 2026-05-07 21:47 | -1.35821 | 36.43950 | 11462 ft | 345 kts | 92° |
| 2026-05-07 21:47 | -1.35869 | 36.46305 | 11261 ft | 333 kts | 91° |
| 2026-05-07 21:47 | -1.35927 | 36.48579 | 11013 ft | 323 kts | 92° |
| 2026-05-07 21:48 | -1.36021 | 36.50763 | 10746 ft | 314 kts | 93° |
| 2026-05-07 21:48 | -1.36136 | 36.52917 | 10469 ft | 307 kts | 94° |
| 2026-05-07 21:48 | -1.36259 | 36.55019 | 10187 ft | 300 kts | 94° |
| 2026-05-07 21:48 | -1.36384 | 36.57074 | 9908 ft | 293 kts | 94° |
| 2026-05-07 21:49 | -1.36510 | 36.59098 | 9607 ft | 290 kts | 94° |
| 2026-05-07 21:49 | -1.36638 | 36.61103 | 9368 ft | 289 kts | 94° |
| 2026-05-07 21:49 | -1.36760 | 36.63099 | 9133 ft | 287 kts | 95° |
| 2026-05-07 21:49 | -1.36885 | 36.65086 | 8907 ft | 286 kts | 95° |
| 2026-05-07 21:50 | -1.37009 | 36.67065 | 8685 ft | 285 kts | 94° |
| 2026-05-07 21:50 | -1.37137 | 36.69034 | 8458 ft | 283 kts | 94° |
| 2026-05-07 21:50 | -1.37257 | 36.70955 | 8234 ft | 278 kts | 94° |
| 2026-05-07 21:50 | -1.37377 | 36.72865 | 8005 ft | 272 kts | 93° |
| 2026-05-07 21:51 | -1.37489 | 36.74721 | 7766 ft | 264 kts | 93° |
| 2026-05-07 21:51 | -1.37600 | 36.76526 | 7523 ft | 257 kts | 93° |
| 2026-05-07 21:51 | -1.37708 | 36.78287 | 7289 ft | 250 kts | 93° |
| 2026-05-07 21:51 | -1.37815 | 36.79998 | 7050 ft | 242 kts | 92° |
| 2026-05-07 21:52 | -1.37914 | 36.81620 | 6971 ft | 225 kts | 92° |
| 2026-05-07 21:52 | -1.38006 | 36.83089 | 7027 ft | 199 kts | 92° |
| 2026-05-07 21:52 | -1.37913 | 36.84376 | 7010 ft | 179 kts | 72° |
| 2026-05-07 21:52 | -1.37340 | 36.85409 | 6900 ft | 164 kts | 55° |
| 2026-05-07 21:53 | -1.36670 | 36.86273 | 6682 ft | 151 kts | 54° |
| 2026-05-07 21:53 | -1.36054 | 36.87111 | 6468 ft | 149 kts | 54° |
| 2026-05-07 21:53 | -1.35441 | 36.87951 | 6262 ft | 150 kts | 53° |
| 2026-05-07 21:53 | -1.34827 | 36.88794 | 6064 ft | 150 kts | 53° |
| 2026-05-07 21:54 | -1.34215 | 36.89635 | 5876 ft | 149 kts | 53° |
| 2026-05-07 21:54 | -1.33605 | 36.90477 | 5643 ft | 149 kts | 53° |
| 2026-05-07 21:54 | -1.32993 | 36.91316 | 5464 ft | 150 kts | 53° |
| 2026-05-07 21:54 | -1.32383 | 36.92151 | 5334 ft | 145 kts | 53° |
| 2026-05-07 21:55 | -1.31946 | 36.92748 | 5322 ft | 39 kts | 55° |
| 2026-05-07 21:55 | -1.31962 | 36.92808 | 5317 ft | 11 kts | 145° |
| 2026-05-07 21:55 | -1.32033 | 36.92859 | 5317 ft | 14 kts | 144° |
| 2026-05-07 21:55 | -1.32120 | 36.92922 | 5318 ft | 17 kts | 144° |
| 2026-05-07 21:56 | -1.32215 | 36.92939 | 5326 ft | 17 kts | 227° |
| 2026-05-07 21:56 | -1.32287 | 36.92840 | 5326 ft | 18 kts | 235° |
| 2026-05-07 21:56 | -1.32362 | 36.92730 | 5332 ft | 20 kts | 232° |
| 2026-05-07 21:56 | -1.32450 | 36.92618 | 5332 ft | 21 kts | 233° |
| 2026-05-07 21:57 | -1.32536 | 36.92497 | 5333 ft | 22 kts | 235° |
| 2026-05-07 21:57 | -1.32627 | 36.92368 | 5338 ft | 23 kts | 229° |
| 2026-05-07 21:57 | -1.32722 | 36.92247 | 5331 ft | 19 kts | 235° |
| 2026-05-07 21:57 | -1.32830 | 36.92229 | 5332 ft | 20 kts | 139° |
| 2026-05-07 21:58 | -1.32938 | 36.92239 | 5330 ft | 15 kts | 205° |
| 2026-05-07 21:58 | -1.32999 | 36.92220 | 5330 ft | 6 kts | 189° |
| 2026-05-07 21:58 | -1.33008 | 36.92219 | 5330 ft | 0 kts | 189° |
| 2026-05-07 21:58 | -1.33009 | 36.92219 | 5331 ft | 0 kts | 189° |
| 2026-05-07 21:59 | -1.33019 | 36.92210 | 5330 ft | 2 kts | 253° |
| 2026-05-07 21:59 | -1.33015 | 36.92184 | 5331 ft | 6 kts | 285° |
| 2026-05-07 21:59 | -1.33011 | 36.92169 | 5335 ft | 3 kts | 284° |
| 2026-05-07 21:59 | -1.33010 | 36.92166 | 5332 ft | 0 kts | 284° |